Time;durP1;ratioP1;P1;durP2;ratioP2;P2;SDS_P1;SDS_P2;PMS_P1;PMS_P2;Temp;Humidity;BMP_temperature;BMP_pressure;BME280_temperature;BME280_humidity;BME280_pressure;Samples;Min_cycle;Max_cycle;Signal;HPM_P1;HPM_P2
2022/11/10 00:00:44;;;;;;;3.67;1.10;;;;;;;;;;5056690;28;20139;-80
2022/11/10 00:03:11;;;;;;;5.53;1.08;;;;;;;;;;5060707;28;20076;-80
2022/11/10 00:05:38;;;;;;;4.00;1.05;;;;;;;;;;5079554;28;20090;-82
2022/11/10 00:08:05;;;;;;;4.70;1.20;;;;;;;;;;5089104;28;20076;-83
2022/11/10 00:10:32;;;;;;;7.32;1.38;;;;;;;;;;5088272;28;20090;-83
2022/11/10 00:13:02;;;;;;;3.88;1.10;;;;;;;;;;5087108;28;20089;-81
2022/11/10 00:18:13;;;;;;;6.60;0.90;;;;;;;;;;5061115;28;20056;-83
2022/11/10 00:20:40;;;;;;;3.63;1.00;;;;;;;;;;5061600;28;20444;-82
2022/11/10 00:23:06;;;;;;;10.00;1.27;;;;;;;;;;5062294;28;20135;-82
2022/11/10 00:25:32;;;;;;;4.90;1.10;;;;;;;;;;5062731;28;20523;-82
2022/11/10 00:27:59;;;;;;;3.63;1.08;;;;;;;;;;5063568;28;20044;-82
2022/11/10 00:30:25;;;;;;;4.97;1.20;;;;;;;;;;5067792;28;20143;-82
2022/11/10 00:32:52;;;;;;;4.65;1.33;;;;;;;;;;5066575;28;20071;-83
2022/11/10 00:35:18;;;;;;;5.30;1.15;;;;;;;;;;5066354;28;20106;-82
2022/11/10 00:37:45;;;;;;;4.85;1.10;;;;;;;;;;5067175;28;20108;-81
2022/11/10 00:40:11;;;;;;;5.97;1.20;;;;;;;;;;5067585;28;20033;-82
2022/11/10 00:42:37;;;;;;;6.22;1.13;;;;;;;;;;5066358;28;20053;-82
2022/11/10 00:45:04;;;;;;;3.40;1.00;;;;;;;;;;5068187;28;20041;-83
2022/11/10 00:47:31;;;;;;;2.97;1.20;;;;;;;;;;5066012;28;20144;-82
2022/11/10 00:49:57;;;;;;;4.72;1.23;;;;;;;;;;5064717;28;20052;-82
2022/11/10 00:52:24;;;;;;;4.55;1.17;;;;;;;;;;5064103;28;20052;-82
2022/11/10 00:54:50;;;;;;;6.25;1.25;;;;;;;;;;5065230;28;20120;-82
2022/11/10 00:57:16;;;;;;;4.47;1.15;;;;;;;;;;5060645;28;20459;-82
2022/11/10 00:59:43;;;;;;;5.28;1.27;;;;;;;;;;5060860;28;20540;-83
2022/11/10 01:02:09;;;;;;;4.30;1.10;;;;;;;;;;5061958;28;20076;-83
2022/11/10 01:04:36;;;;;;;6.82;1.20;;;;;;;;;;5061378;28;20136;-81
2022/11/10 01:07:02;;;;;;;3.67;1.10;;;;;;;;;;5077404;28;20051;-82
2022/11/10 01:09:29;;;;;;;6.55;1.35;;;;;;;;;;5083879;28;20104;-82
2022/11/10 01:11:55;;;;;;;3.35;1.08;;;;;;;;;;5083433;28;20045;-83
2022/11/10 01:14:22;;;;;;;3.63;1.10;;;;;;;;;;5079640;28;20051;-84
2022/11/10 01:16:48;;;;;;;5.50;1.08;;;;;;;;;;5067090;28;20049;-83
2022/11/10 01:19:14;;;;;;;5.00;1.30;;;;;;;;;;5067464;28;20055;-82
2022/11/10 01:21:41;;;;;;;2.92;1.17;;;;;;;;;;5067954;28;20056;-83
2022/11/10 01:24:07;;;;;;;7.13;1.20;;;;;;;;;;5066672;28;20117;-84
2022/11/10 01:26:34;;;;;;;4.03;1.20;;;;;;;;;;5068255;28;20075;-82
2022/11/10 01:29:00;;;;;;;2.35;1.05;;;;;;;;;;5068197;28;20044;-83
2022/11/10 01:31:26;;;;;;;5.72;1.23;;;;;;;;;;5069782;28;20109;-84
2022/11/10 01:33:53;;;;;;;4.82;1.08;;;;;;;;;;5072389;28;20045;-84
2022/11/10 01:36:19;;;;;;;3.40;0.90;;;;;;;;;;5069797;28;20053;-81
2022/11/10 01:38:46;;;;;;;4.03;1.08;;;;;;;;;;5064580;28;20052;-81
2022/11/10 01:41:13;;;;;;;3.53;1.08;;;;;;;;;;5064297;28;20136;-81
2022/11/10 01:43:40;;;;;;;4.60;1.13;;;;;;;;;;5064704;28;20626;-81
2022/11/10 01:46:07;;;;;;;3.70;1.20;;;;;;;;;;5065828;28;20057;-81
2022/11/10 01:48:43;;;;;;;3.92;1.00;;;;;;;;;;5066314;28;20121;-82
2022/11/10 01:51:09;;;;;;;;;;;;;;;;;;5066970;28;20052;-83
2022/11/10 01:53:37;;;;;;;8.85;1.25;;;;;;;;;;5066296;28;19948;-81
2022/11/10 01:56:04;;;;;;;4.45;1.65;;;;;;;;;;5065727;28;20433;-81
2022/11/10 01:58:32;;;;;;;4.80;1.17;;;;;;;;;;5065512;28;20069;-81
2022/11/10 02:00:59;;;;;;;3.75;0.80;;;;;;;;;;5067157;28;20045;-81
2022/11/10 02:03:25;;;;;;;5.80;1.00;;;;;;;;;;5073058;28;20063;-81
2022/11/10 02:05:52;;;;;;;4.35;1.20;;;;;;;;;;5071345;28;20057;-81
2022/11/10 02:08:18;;;;;;;5.28;1.15;;;;;;;;;;5068700;28;20366;-81
2022/11/10 02:10:44;;;;;;;6.30;1.13;;;;;;;;;;5067992;28;20084;-81
2022/11/10 02:13:11;;;;;;;5.38;1.30;;;;;;;;;;5067209;28;20068;-81
2022/11/10 02:15:38;;;;;;;3.95;1.00;;;;;;;;;;5066460;28;20052;-80
2022/11/10 02:18:04;;;;;;;6.88;1.27;;;;;;;;;;5071323;28;20120;-80
2022/11/10 02:20:31;;;;;;;6.10;1.17;;;;;;;;;;5070870;28;20079;-81
2022/11/10 02:22:57;;;;;;;5.70;1.05;;;;;;;;;;5070052;28;20113;-81
2022/11/10 02:25:28;;;;;;;4.15;1.10;;;;;;;;;;5066317;28;20136;-81
2022/11/10 02:27:55;;;;;;;4.50;1.35;;;;;;;;;;5072682;28;20080;-82
2022/11/10 02:30:21;;;;;;;5.70;1.02;;;;;;;;;;5073202;28;20113;-82
2022/11/10 02:32:52;;;;;;;4.68;1.02;;;;;;;;;;5071188;28;20060;-82
2022/11/10 02:35:19;;;;;;;10.10;1.48;;;;;;;;;;5070817;28;20045;-82
2022/11/10 02:37:45;;;;;;;6.80;1.30;;;;;;;;;;5070108;28;20108;-83
2022/11/10 02:40:13;;;;;;;6.97;2.10;;;;;;;;;;5070538;28;20029;-82
2022/11/10 02:42:39;;;;;;;5.00;1.30;;;;;;;;;;5067869;28;20045;-80
2022/11/10 02:45:07;;;;;;;2.95;1.10;;;;;;;;;;5065988;28;20048;-82
2022/11/10 02:47:34;;;;;;;4.65;1.40;;;;;;;;;;5067070;28;20068;-82
2022/11/10 02:50:00;;;;;;;7.53;1.58;;;;;;;;;;5067590;28;20112;-82
2022/11/10 02:52:27;;;;;;;3.60;1.50;;;;;;;;;;5067870;28;20140;-82
2022/11/10 02:54:53;;;;;;;4.00;1.50;;;;;;;;;;5067668;28;20124;-82
2022/11/10 02:57:20;;;;;;;6.97;1.30;;;;;;;;;;5069388;28;20080;-82
2022/11/10 02:59:46;;;;;;;7.85;1.10;;;;;;;;;;5070119;28;20071;-82
2022/11/10 03:02:14;;;;;;;4.43;1.20;;;;;;;;;;5069239;28;20067;-82
2022/11/10 03:04:43;;;;;;;5.95;1.23;;;;;;;;;;5070974;28;20128;-82
2022/11/10 03:07:10;;;;;;;4.57;1.35;;;;;;;;;;5066255;28;20049;-81
2022/11/10 03:09:36;;;;;;;4.85;1.38;;;;;;;;;;5067235;28;20049;-81
2022/11/10 03:12:03;;;;;;;4.70;1.30;;;;;;;;;;5067690;28;20109;-81
2022/11/10 03:14:29;;;;;;;3.00;1.20;;;;;;;;;;5066866;28;20120;-79
2022/11/10 03:16:55;;;;;;;10.25;1.83;;;;;;;;;;5068529;28;20060;-82
2022/11/10 03:19:22;;;;;;;6.03;1.50;;;;;;;;;;5067894;28;20064;-83
2022/11/10 03:21:48;;;;;;;6.45;1.30;;;;;;;;;;5069198;28;20071;-82
2022/11/10 03:24:15;;;;;;;6.68;1.65;;;;;;;;;;5068512;28;20103;-81
2022/11/10 03:26:41;;;;;;;8.55;1.75;;;;;;;;;;5070043;28;20076;-82
2022/11/10 03:29:07;;;;;;;6.78;1.35;;;;;;;;;;5069599;28;20045;-81
2022/11/10 03:31:34;;;;;;;6.07;1.40;;;;;;;;;;5069800;28;20052;-83
2022/11/10 03:34:00;;;;;;;4.32;1.00;;;;;;;;;;5068155;28;20049;-82
2022/11/10 03:36:27;;;;;;;4.57;1.38;;;;;;;;;;5070183;28;20275;-82
2022/11/10 03:38:54;;;;;;;9.73;1.40;;;;;;;;;;5068445;28;20049;-81
2022/11/10 03:41:20;;;;;;;6.93;1.50;;;;;;;;;;5070367;28;20057;-82
2022/11/10 03:43:47;;;;;;;4.53;1.30;;;;;;;;;;5069743;28;20274;-82
2022/11/10 03:46:14;;;;;;;4.45;1.23;;;;;;;;;;5069000;28;20139;-82
2022/11/10 03:48:41;;;;;;;12.05;1.45;;;;;;;;;;5065306;28;20049;-82
2022/11/10 03:51:07;;;;;;;6.43;1.20;;;;;;;;;;5070911;28;20108;-82
2022/11/10 03:53:33;;;;;;;5.70;1.17;;;;;;;;;;5071390;28;20049;-83
2022/11/10 03:56:00;;;;;;;7.40;1.45;;;;;;;;;;5072511;28;20048;-83
2022/11/10 03:58:27;;;;;;;7.55;2.00;;;;;;;;;;5073515;28;20075;-82
2022/11/10 04:00:54;;;;;;;7.57;1.50;;;;;;;;;;5074981;28;20053;-82
2022/11/10 04:03:21;;;;;;;10.45;1.55;;;;;;;;;;5074206;28;20092;-82
2022/11/10 04:16:48;;;;;;;6.00;1.30;;;;;;;;;;5074475;28;20063;-84
2022/11/10 04:19:15;;;;;;;4.60;1.20;;;;;;;;;;5074547;28;20071;-83
2022/11/10 04:21:41;;;;;;;9.65;1.50;;;;;;;;;;5070672;28;20113;-83
2022/11/10 04:24:07;;;;;;;5.93;1.38;;;;;;;;;;5069599;28;20091;-83
2022/11/10 04:26:37;;;;;;;5.15;1.45;;;;;;;;;;5070041;28;20083;-83
2022/11/10 04:29:05;;;;;;;6.80;1.48;;;;;;;;;;5068948;28;20043;-83
2022/11/10 04:31:32;;;;;;;4.15;1.30;;;;;;;;;;5069916;28;20049;-84
2022/11/10 04:33:58;;;;;;;5.72;1.20;;;;;;;;;;5066730;28;20317;-84
2022/11/10 04:36:26;;;;;;;5.45;1.58;;;;;;;;;;5068697;28;20045;-79
2022/11/10 04:38:56;;;;;;;8.15;1.60;;;;;;;;;;5066770;28;20120;-83
2022/11/10 04:41:23;;;;;;;9.02;1.92;;;;;;;;;;5067472;28;20060;-82
2022/11/10 04:43:50;;;;;;;8.15;1.55;;;;;;;;;;5067812;28;20040;-81
2022/11/10 04:46:16;;;;;;;8.35;1.88;;;;;;;;;;5061186;28;20053;-82
2022/11/10 04:48:42;;;;;;;6.45;1.70;;;;;;;;;;5069292;28;20140;-82
2022/11/10 04:51:10;;;;;;;5.80;2.03;;;;;;;;;;5067266;28;20061;-81
2022/11/10 04:53:36;;;;;;;3.90;1.55;;;;;;;;;;5063815;28;20057;-80
2022/11/10 04:56:03;;;;;;;9.82;2.00;;;;;;;;;;5065432;28;20057;-81
2022/11/10 04:58:29;;;;;;;8.23;1.65;;;;;;;;;;5064709;28;20056;-81
2022/11/10 05:00:56;;;;;;;5.65;1.23;;;;;;;;;;5063938;28;20057;-79
2022/11/10 05:03:22;;;;;;;9.07;1.40;;;;;;;;;;5062931;28;20049;-81
2022/11/10 05:05:49;;;;;;;3.92;1.58;;;;;;;;;;5064076;28;20056;-79
2022/11/10 05:08:16;;;;;;;7.10;1.58;;;;;;;;;;5065189;28;20094;-79
2022/11/10 05:10:42;;;;;;;7.43;1.45;;;;;;;;;;5060750;28;20128;-77
2022/11/10 05:13:10;;;;;;;7.00;1.70;;;;;;;;;;5062129;28;20135;-80
2022/11/10 05:15:40;;;;;;;6.25;1.40;;;;;;;;;;5067551;28;20076;-81
2022/11/10 05:18:06;;;;;;;5.80;1.38;;;;;;;;;;5070636;28;20041;-81
2022/11/10 05:20:33;;;;;;;7.60;1.35;;;;;;;;;;5070295;28;20033;-81
2022/11/10 05:25:49;;;;;;;10.52;1.30;;;;;;;;;;5065818;28;20049;-80
2022/11/10 05:28:16;;;;;;;5.10;1.10;;;;;;;;;;5065654;28;20060;-80
2022/11/10 05:30:42;;;;;;;10.88;1.42;;;;;;;;;;5062439;28;20517;-82
2022/11/10 05:33:09;;;;;;;11.75;1.92;;;;;;;;;;5060398;28;20060;-81
2022/11/10 05:35:35;;;;;;;6.35;1.85;;;;;;;;;;5056449;28;20045;-80
2022/11/10 05:38:02;;;;;;;5.93;1.73;;;;;;;;;;5051577;28;20041;-82
2022/11/10 05:40:29;;;;;;;6.40;1.80;;;;;;;;;;5051802;28;20608;-79
2022/11/10 05:42:56;;;;;;;6.13;1.90;;;;;;;;;;5051085;28;20048;-78
2022/11/10 05:45:25;;;;;;;12.25;2.58;;;;;;;;;;5052937;28;20049;-79
2022/11/10 05:47:51;;;;;;;5.72;1.90;;;;;;;;;;5061121;28;20048;-81
2022/11/10 05:50:19;;;;;;;4.95;1.55;;;;;;;;;;5066718;28;20104;-79
2022/11/10 05:52:49;;;;;;;7.03;1.70;;;;;;;;;;5064282;28;20055;-81
2022/11/10 05:55:17;;;;;;;8.27;1.70;;;;;;;;;;5047671;28;20464;-81
2022/11/10 05:57:46;;;;;;;9.82;1.85;;;;;;;;;;5041898;28;20060;-82
2022/11/10 06:00:15;;;;;;;8.52;1.40;;;;;;;;;;5046053;28;20067;-80
2022/11/10 06:02:42;;;;;;;6.90;1.40;;;;;;;;;;5043173;28;20809;-79
2022/11/10 06:05:09;;;;;;;8.82;1.60;;;;;;;;;;5048846;28;20303;-81
2022/11/10 06:07:37;;;;;;;8.50;1.42;;;;;;;;;;5049245;28;20155;-82
2022/11/10 06:10:03;;;;;;;7.18;1.60;;;;;;;;;;5064587;28;20509;-82
2022/11/10 06:12:30;;;;;;;5.20;1.52;;;;;;;;;;5061844;28;20060;-83
2022/11/10 06:14:57;;;;;;;4.93;1.55;;;;;;;;;;5061381;28;20493;-82
2022/11/10 06:17:24;;;;;;;7.00;1.50;;;;;;;;;;5059198;28;20554;-83
2022/11/10 06:19:50;;;;;;;7.30;1.38;;;;;;;;;;5062150;28;20060;-82
2022/11/10 06:22:17;;;;;;;7.13;1.65;;;;;;;;;;5062260;28;20503;-83
2022/11/10 06:24:43;;;;;;;9.40;1.90;;;;;;;;;;5041717;28;20056;-80
2022/11/10 06:27:10;;;;;;;8.82;1.50;;;;;;;;;;5042077;28;20057;-83
2022/11/10 06:29:36;;;;;;;8.82;1.73;;;;;;;;;;5045839;28;20049;-81
2022/11/10 06:32:03;;;;;;;7.75;1.92;;;;;;;;;;5042932;28;20045;-82
2022/11/10 06:34:29;;;;;;;6.35;1.90;;;;;;;;;;5043371;28;20054;-82
2022/11/10 06:36:55;;;;;;;11.90;1.80;;;;;;;;;;5043998;28;20055;-83
2022/11/10 06:39:22;;;;;;;7.30;1.77;;;;;;;;;;5047268;28;20109;-82
2022/11/10 06:41:48;;;;;;;12.50;2.35;;;;;;;;;;5044570;28;20053;-80
2022/11/10 06:44:15;;;;;;;8.35;1.90;;;;;;;;;;5043396;28;20073;-82
2022/11/10 06:46:41;;;;;;;6.03;1.98;;;;;;;;;;5041948;28;20049;-83
2022/11/10 06:49:07;;;;;;;9.82;2.20;;;;;;;;;;5040475;28;20059;-83
2022/11/10 06:51:34;;;;;;;10.52;2.30;;;;;;;;;;5040720;28;20660;-82
2022/11/10 06:54:00;;;;;;;9.43;2.00;;;;;;;;;;5041105;28;20058;-82
2022/11/10 06:56:27;;;;;;;9.68;2.03;;;;;;;;;;5041194;28;20081;-82
2022/11/10 06:58:53;;;;;;;7.05;1.98;;;;;;;;;;5039548;28;20206;-82
2022/11/10 07:01:24;;;;;;;6.13;2.30;;;;;;;;;;5039678;28;20049;-83
2022/11/10 07:03:55;;;;;;;9.00;2.22;;;;;;;;;;5048785;28;20056;-81
2022/11/10 07:06:41;;;;;;;7.40;2.10;;;;;;;;;;5059927;28;20044;-81
2022/11/10 07:09:08;;;;;;;8.80;2.17;;;;;;;;;;5058560;28;20049;-82
2022/11/10 07:11:34;;;;;;;9.25;2.20;;;;;;;;;;5059019;28;20045;-81
2022/11/10 07:14:00;;;;;;;8.25;1.73;;;;;;;;;;5059538;28;20049;-84
2022/11/10 07:16:27;;;;;;;12.02;2.50;;;;;;;;;;5057617;28;20140;-81
2022/11/10 07:18:53;;;;;;;4.50;2.05;;;;;;;;;;5059039;28;20164;-84
2022/11/10 07:21:19;;;;;;;7.10;1.98;;;;;;;;;;5059633;28;20045;-79
2022/11/10 07:23:46;;;;;;;10.93;1.98;;;;;;;;;;5058872;28;20437;-82
2022/11/10 07:26:12;;;;;;;5.18;1.50;;;;;;;;;;5058241;28;20145;-82
2022/11/10 07:28:39;;;;;;;9.13;1.65;;;;;;;;;;5057162;28;20055;-82
2022/11/10 07:31:05;;;;;;;5.35;1.67;;;;;;;;;;5057862;28;20497;-82
2022/11/10 07:33:32;;;;;;;5.40;1.83;;;;;;;;;;5058618;28;20124;-82
2022/11/10 07:35:59;;;;;;;11.10;2.17;;;;;;;;;;5058479;28;20266;-83
2022/11/10 07:38:25;;;;;;;8.65;2.25;;;;;;;;;;5058611;28;20131;-82
2022/11/10 07:40:52;;;;;;;10.35;2.35;;;;;;;;;;5057295;28;20049;-82
2022/11/10 07:43:19;;;;;;;8.57;1.70;;;;;;;;;;5058707;28;20068;-82
2022/11/10 07:45:48;;;;;;;12.38;2.00;;;;;;;;;;5057352;28;20041;-83
2022/11/10 07:48:14;;;;;;;7.53;1.70;;;;;;;;;;5058906;28;20048;-81
2022/11/10 07:50:40;;;;;;;6.82;1.60;;;;;;;;;;5058256;28;20053;-82
2022/11/10 07:53:09;;;;;;;11.05;2.05;;;;;;;;;;5058356;28;20584;-83
2022/11/10 07:55:36;;;;;;;10.18;2.13;;;;;;;;;;5057694;28;20317;-82
2022/11/10 07:58:03;;;;;;;10.13;2.15;;;;;;;;;;5059561;28;20084;-82
2022/11/10 08:00:30;;;;;;;7.22;1.85;;;;;;;;;;5061083;28;20049;-81
2022/11/10 08:03:25;;;;;;;8.88;1.70;;;;;;;;;;5057854;28;20052;-82
2022/11/10 08:05:52;;;;;;;8.13;2.03;;;;;;;;;;5050714;28;20048;-83
2022/11/10 08:08:18;;;;;;;9.88;2.35;;;;;;;;;;5066151;28;20084;-83
2022/11/10 08:10:44;;;;;;;10.43;1.63;;;;;;;;;;5061499;28;20053;-83
2022/11/10 08:13:11;;;;;;;6.50;1.50;;;;;;;;;;5058261;28;20045;-82
2022/11/10 08:15:38;;;;;;;6.85;1.90;;;;;;;;;;5060257;28;20596;-80
2022/11/10 08:18:05;;;;;;;7.72;1.75;;;;;;;;;;5064069;28;20117;-80
2022/11/10 08:20:32;;;;;;;8.93;1.73;;;;;;;;;;5057723;28;20501;-82
2022/11/10 08:23:00;;;;;;;7.10;1.50;;;;;;;;;;5059630;28;20049;-83
2022/11/10 08:25:27;;;;;;;3.70;1.50;;;;;;;;;;5058991;28;20424;-82
2022/11/10 08:28:00;;;;;;;5.28;1.70;;;;;;;;;;5056355;28;20128;-82
2022/11/10 08:30:27;;;;;;;7.00;1.58;;;;;;;;;;5056651;28;20052;-83
2022/11/10 08:32:55;;;;;;;5.55;1.50;;;;;;;;;;5060553;28;20452;-83
2022/11/10 08:35:22;;;;;;;6.40;1.35;;;;;;;;;;5057601;28;20139;-82
2022/11/10 08:37:48;;;;;;;7.57;1.50;;;;;;;;;;5056635;28;20425;-82
2022/11/10 08:40:16;;;;;;;7.57;1.70;;;;;;;;;;5055921;28;20045;-83
2022/11/10 08:42:42;;;;;;;8.70;1.90;;;;;;;;;;5055450;28;20067;-82
2022/11/10 08:45:09;;;;;;;12.60;1.55;;;;;;;;;;5057670;28;20052;-82
2022/11/10 08:47:38;;;;;;;8.55;2.05;;;;;;;;;;5059891;28;20051;-83
2022/11/10 08:50:06;;;;;;;7.40;1.85;;;;;;;;;;5057658;28;20053;-82
2022/11/10 08:52:32;;;;;;;7.38;1.60;;;;;;;;;;5055823;28;20136;-82
2022/11/10 08:54:59;;;;;;;7.85;1.75;;;;;;;;;;5058458;28;20079;-80
2022/11/10 08:57:26;;;;;;;7.47;1.40;;;;;;;;;;5055603;28;20071;-82
2022/11/10 08:59:52;;;;;;;9.82;1.80;;;;;;;;;;5055390;28;20041;-82
2022/11/10 09:02:18;;;;;;;11.23;1.70;;;;;;;;;;5055201;28;20068;-82
2022/11/10 09:04:45;;;;;;;10.25;1.65;;;;;;;;;;5056620;28;20045;-82
2022/11/10 09:07:11;;;;;;;11.25;1.42;;;;;;;;;;5054304;28;20128;-82
2022/11/10 09:09:38;;;;;;;10.60;1.63;;;;;;;;;;5062656;28;20063;-82
2022/11/10 09:12:04;;;;;;;7.03;1.90;;;;;;;;;;5067984;28;20049;-83
2022/11/10 09:14:32;;;;;;;7.40;1.45;;;;;;;;;;5070384;28;20041;-81
2022/11/10 09:16:58;;;;;;;9.05;1.75;;;;;;;;;;5072488;28;20063;-81
2022/11/10 09:19:25;;;;;;;7.15;1.80;;;;;;;;;;5074519;28;20083;-81
2022/11/10 09:21:51;;;;;;;8.40;2.10;;;;;;;;;;5067774;28;20109;-82
2022/11/10 09:24:17;;;;;;;11.75;2.03;;;;;;;;;;5062647;28;20136;-82
2022/11/10 09:26:46;;;;;;;9.30;1.83;;;;;;;;;;5061677;28;20045;-81
2022/11/10 09:29:12;;;;;;;7.82;1.70;;;;;;;;;;5061418;28;20071;-83
2022/11/10 09:31:39;;;;;;;6.95;1.45;;;;;;;;;;5061379;28;20057;-80
2022/11/10 09:34:05;;;;;;;7.38;1.60;;;;;;;;;;5061822;28;20087;-81
2022/11/10 09:36:32;;;;;;;11.32;2.00;;;;;;;;;;5063905;28;20059;-81
2022/11/10 09:38:58;;;;;;;5.20;1.35;;;;;;;;;;5066337;28;20056;-83
2022/11/10 09:41:28;;;;;;;11.15;1.60;;;;;;;;;;5062417;28;20049;-80
2022/11/10 09:44:14;;;;;;;6.30;2.03;;;;;;;;;;5063841;28;20379;-82
2022/11/10 09:46:42;;;;;;;9.90;1.65;;;;;;;;;;5065086;28;20206;-83
2022/11/10 09:49:14;;;;;;;10.60;1.50;;;;;;;;;;5066074;28;20049;-81
2022/11/10 09:51:41;;;;;;;12.23;1.67;;;;;;;;;;5067443;28;20072;-80
2022/11/10 09:54:16;;;;;;;6.95;1.40;;;;;;;;;;5068666;28;20111;-81
2022/11/10 09:56:42;;;;;;;7.68;1.48;;;;;;;;;;5070202;28;20136;-81
2022/11/10 09:59:18;;;;;;;10.35;1.95;;;;;;;;;;5067805;28;20045;-80
2022/11/10 10:01:47;;;;;;;5.97;1.40;;;;;;;;;;5067355;28;20448;-79
2022/11/10 10:04:20;;;;;;;5.95;1.63;;;;;;;;;;5055116;28;20048;-81
2022/11/10 10:06:54;;;;;;;8.60;2.00;;;;;;;;;;5051736;28;20045;-81
2022/11/10 10:09:54;;;;;;;9.00;1.70;;;;;;;;;;5053736;28;20045;-82
2022/11/10 10:12:39;;;;;;;5.43;1.45;;;;;;;;;;5053892;28;20497;-82
2022/11/10 10:15:09;;;;;;;6.22;1.60;;;;;;;;;;5053103;28;20580;-81
2022/11/10 10:17:51;;;;;;;6.55;1.58;;;;;;;;;;5053412;28;20100;-80
2022/11/10 10:20:35;;;;;;;7.20;1.95;;;;;;;;;;5053031;28;20240;-82
2022/11/10 10:23:04;;;;;;;8.40;1.50;;;;;;;;;;5053029;28;20424;-81
2022/11/10 10:25:31;;;;;;;6.35;1.63;;;;;;;;;;5051934;28;20610;-81
2022/11/10 10:28:07;;;;;;;5.18;1.63;;;;;;;;;;5052799;28;20124;-81
2022/11/10 10:30:33;;;;;;;;;;;;;;;;;;5052951;28;20481;-83
2022/11/10 10:33:07;;;;;;;7.28;1.60;;;;;;;;;;5054826;28;19921;-83
2022/11/10 10:35:34;;;;;;;8.32;1.42;;;;;;;;;;5055910;28;20052;-81
2022/11/10 10:38:15;;;;;;;6.20;1.23;;;;;;;;;;5056580;28;20111;-83
2022/11/10 10:40:42;;;;;;;8.43;1.33;;;;;;;;;;5054244;28;20124;-82
2022/11/10 10:43:08;;;;;;;7.30;2.03;;;;;;;;;;5057484;28;20124;-83
2022/11/10 10:45:40;;;;;;;6.78;1.63;;;;;;;;;;5061259;28;20105;-83
2022/11/10 10:48:24;;;;;;;7.05;1.65;;;;;;;;;;5059876;28;20053;-83
2022/11/10 10:50:50;;;;;;;7.57;1.60;;;;;;;;;;5059182;28;20144;-83
2022/11/10 10:53:20;;;;;;;6.65;1.58;;;;;;;;;;5060235;28;20044;-82
2022/11/10 10:56:12;;;;;;;9.77;2.17;;;;;;;;;;5062288;28;20100;-81
2022/11/10 10:58:55;;;;;;;6.80;1.42;;;;;;;;;;5056465;28;20132;-84
2022/11/10 11:01:28;;;;;;;6.60;1.40;;;;;;;;;;5052998;28;20056;-82
2022/11/10 11:03:54;;;;;;;8.35;1.67;;;;;;;;;;5051337;28;20076;-82
2022/11/10 11:06:24;;;;;;;5.97;1.52;;;;;;;;;;5054719;28;20140;-82
2022/11/10 11:08:53;;;;;;;9.07;1.67;;;;;;;;;;5060408;28;20060;-85
2022/11/10 11:11:32;;;;;;;10.23;1.50;;;;;;;;;;5059160;28;20049;-84
2022/11/10 11:14:17;;;;;;;8.38;1.90;;;;;;;;;;5059583;28;20059;-83
2022/11/10 11:16:49;;;;;;;6.37;1.20;;;;;;;;;;5060581;28;20486;-83
2022/11/10 11:19:16;;;;;;;4.93;1.35;;;;;;;;;;5065870;28;20045;-83
2022/11/10 11:21:53;;;;;;;10.70;1.88;;;;;;;;;;5066993;28;20136;-84
2022/11/10 11:24:38;;;;;;;7.93;1.50;;;;;;;;;;5060656;28;20053;-82
2022/11/10 11:27:10;;;;;;;6.15;1.65;;;;;;;;;;5054955;28;20045;-82
2022/11/10 11:29:59;;;;;;;7.80;1.98;;;;;;;;;;5053802;28;20511;-82
2022/11/10 11:32:44;;;;;;;10.75;1.80;;;;;;;;;;5053471;28;20053;-83
2022/11/10 11:35:14;;;;;;;9.60;1.70;;;;;;;;;;5052822;28;20059;-83
2022/11/10 11:38:13;;;;;;;8.20;1.63;;;;;;;;;;5055756;28;20105;-83
2022/11/10 11:40:46;;;;;;;9.48;1.70;;;;;;;;;;5035963;28;20053;-83
2022/11/10 11:43:15;;;;;;;7.25;1.55;;;;;;;;;;5061524;28;20075;-84
2022/11/10 11:45:44;;;;;;;7.40;1.58;;;;;;;;;;5065986;28;20127;-84
2022/11/10 11:48:29;;;;;;;7.72;1.45;;;;;;;;;;5057503;28;20049;-81
2022/11/10 11:50:59;;;;;;;9.38;1.30;;;;;;;;;;5052227;28;20123;-79
2022/11/10 11:53:28;;;;;;;10.43;1.70;;;;;;;;;;5053516;28;20055;-80
2022/11/10 11:55:55;;;;;;;10.85;2.17;;;;;;;;;;5053562;28;20067;-81
2022/11/10 11:58:23;;;;;;;5.65;1.30;;;;;;;;;;5054940;28;20477;-80
2022/11/10 12:01:17;;;;;;;8.30;1.42;;;;;;;;;;5053434;28;20049;-81
2022/11/10 12:03:52;;;;;;;8.25;1.67;;;;;;;;;;5046985;28;20140;-82
2022/11/10 12:06:18;;;;;;;6.75;1.48;;;;;;;;;;5053604;28;20048;-81
2022/11/10 12:08:51;;;;;;;6.13;1.50;;;;;;;;;;5055170;28;20125;-81
2022/11/10 12:11:17;;;;;;;6.18;1.25;;;;;;;;;;5057112;28;20053;-82
2022/11/10 12:13:47;;;;;;;8.43;1.50;;;;;;;;;;5056545;28;20394;-81
2022/11/10 12:16:20;;;;;;;7.22;1.50;;;;;;;;;;5057669;28;20045;-82
2022/11/10 12:19:04;;;;;;;7.25;1.40;;;;;;;;;;5059517;28;20064;-83
2022/11/10 12:21:43;;;;;;;7.85;1.83;;;;;;;;;;5055191;28;20077;-82
2022/11/10 12:24:19;;;;;;;6.65;1.40;;;;;;;;;;5054298;28;20084;-80
2022/11/10 12:26:55;;;;;;;7.78;1.58;;;;;;;;;;5055822;28;20572;-82
2022/11/10 12:29:40;;;;;;;4.95;1.25;;;;;;;;;;5055701;28;20055;-80
2022/11/10 12:32:20;;;;;;;10.23;1.65;;;;;;;;;;5054772;28;20056;-81
2022/11/10 12:34:49;;;;;;;5.55;1.15;;;;;;;;;;5054987;28;20612;-79
2022/11/10 12:37:36;;;;;;;4.55;1.30;;;;;;;;;;5054986;28;20056;-80
2022/11/10 12:40:03;;;;;;;7.20;1.50;;;;;;;;;;5056572;28;20109;-80
2022/11/10 12:42:30;;;;;;;8.70;1.20;;;;;;;;;;5063346;28;20304;-81
2022/11/10 12:44:56;;;;;;;7.80;1.40;;;;;;;;;;5063953;28;20079;-81
2022/11/10 12:47:24;;;;;;;11.75;1.65;;;;;;;;;;5061418;28;20045;-81
2022/11/10 12:50:10;;;;;;;5.68;1.30;;;;;;;;;;5058594;28;20152;-81
2022/11/10 12:52:42;;;;;;;14.00;1.75;;;;;;;;;;5061459;28;20076;-82
2022/11/10 12:55:13;;;;;;;7.65;1.50;;;;;;;;;;5060635;28;20049;-82
2022/11/10 12:57:41;;;;;;;6.10;1.73;;;;;;;;;;5058765;28;20119;-82
2022/11/10 13:00:24;;;;;;;6.97;1.48;;;;;;;;;;5058413;28;20080;-82
2022/11/10 13:02:54;;;;;;;10.00;1.27;;;;;;;;;;5059100;28;20056;-82
2022/11/10 13:05:32;;;;;;;3.63;1.10;;;;;;;;;;5058937;28;20080;-82
2022/11/10 13:08:12;;;;;;;5.90;1.30;;;;;;;;;;5059526;28;20059;-80
2022/11/10 13:11:08;;;;;;;9.90;1.70;;;;;;;;;;5059358;28;20103;-82
2022/11/10 13:13:40;;;;;;;8.52;1.77;;;;;;;;;;5059573;28;20049;-81
2022/11/10 13:16:07;;;;;;;7.00;1.33;;;;;;;;;;5060791;28;20109;-82
2022/11/10 13:18:34;;;;;;;10.10;1.60;;;;;;;;;;5061379;28;20075;-83
2022/11/10 13:21:00;;;;;;;9.35;1.73;;;;;;;;;;5059780;28;20045;-82
2022/11/10 13:23:28;;;;;;;8.23;1.48;;;;;;;;;;5059969;28;20470;-82
2022/11/10 13:26:02;;;;;;;7.50;1.55;;;;;;;;;;5059341;28;20144;-81
2022/11/10 13:28:43;;;;;;;6.18;1.30;;;;;;;;;;5059342;28;20053;-80
2022/11/10 13:31:30;;;;;;;8.95;1.48;;;;;;;;;;5059125;28;20056;-78
2022/11/10 13:34:20;;;;;;;8.65;1.50;;;;;;;;;;5052008;28;20056;-82
2022/11/10 13:36:48;;;;;;;8.23;1.60;;;;;;;;;;5060502;28;20053;-82
2022/11/10 13:39:14;;;;;;;7.55;1.45;;;;;;;;;;5061452;28;20095;-82
2022/11/10 13:41:46;;;;;;;11.32;1.45;;;;;;;;;;5061166;28;20045;-83
2022/11/10 13:44:18;;;;;;;5.95;1.25;;;;;;;;;;5061041;28;20048;-83
2022/11/10 13:46:57;;;;;;;12.52;1.80;;;;;;;;;;5060432;28;20119;-83
2022/11/10 13:49:23;;;;;;;11.43;1.70;;;;;;;;;;5060235;28;20140;-83
2022/11/10 13:51:57;;;;;;;8.98;1.88;;;;;;;;;;5060214;28;20049;-84
2022/11/10 13:54:29;;;;;;;9.82;1.45;;;;;;;;;;5061322;28;20044;-83
2022/11/10 13:57:01;;;;;;;6.65;1.17;;;;;;;;;;5060445;28;20049;-83
2022/11/10 13:59:29;;;;;;;8.70;1.40;;;;;;;;;;5059336;28;20060;-83
2022/11/10 14:02:15;;;;;;;6.72;1.83;;;;;;;;;;5059541;28;20045;-83
2022/11/10 14:04:42;;;;;;;11.50;1.60;;;;;;;;;;5060521;28;20132;-82
2022/11/10 14:07:13;;;;;;;10.00;1.85;;;;;;;;;;5060631;28;20049;-83
2022/11/10 14:09:42;;;;;;;12.05;1.70;;;;;;;;;;5060912;28;20079;-83
2022/11/10 14:12:31;;;;;;;6.13;1.40;;;;;;;;;;5064396;28;20059;-83
2022/11/10 14:15:06;;;;;;;7.32;1.70;;;;;;;;;;5038018;28;20383;-82
2022/11/10 14:17:40;;;;;;;10.27;1.80;;;;;;;;;;5042625;28;20607;-82
2022/11/10 14:20:28;;;;;;;7.03;1.70;;;;;;;;;;5050842;28;20045;-83
2022/11/10 14:22:56;;;;;;;6.63;1.83;;;;;;;;;;5045666;28;20096;-81
2022/11/10 14:25:39;;;;;;;12.85;1.90;;;;;;;;;;5048678;28;20285;-83
2022/11/10 14:28:26;;;;;;;9.68;1.77;;;;;;;;;;5058147;28;20040;-82
2022/11/10 14:30:55;;;;;;;6.05;1.67;;;;;;;;;;5059308;28;20055;-82
2022/11/10 14:33:22;;;;;;;10.98;1.50;;;;;;;;;;5080183;28;20146;-83
2022/11/10 14:35:52;;;;;;;8.80;1.40;;;;;;;;;;5083786;28;20051;-82
2022/11/10 14:38:26;;;;;;;6.28;1.67;;;;;;;;;;5090900;28;20060;-79
2022/11/10 14:40:58;;;;;;;7.80;1.55;;;;;;;;;;5084909;28;20036;-83
2022/11/10 14:43:27;;;;;;;8.13;1.58;;;;;;;;;;5080862;28;20598;-83
2022/11/10 14:45:54;;;;;;;15.52;1.95;;;;;;;;;;5081920;28;20048;-82
2022/11/10 14:48:22;;;;;;;8.55;2.20;;;;;;;;;;5068383;28;20068;-82
2022/11/10 14:50:50;;;;;;;13.25;2.00;;;;;;;;;;5084456;28;20052;-83
2022/11/10 14:53:20;;;;;;;11.65;2.03;;;;;;;;;;5083639;28;20060;-80
2022/11/10 14:55:49;;;;;;;8.38;1.75;;;;;;;;;;5089439;28;20032;-82
2022/11/10 14:58:24;;;;;;;9.20;1.90;;;;;;;;;;5085539;28;20048;-83
2022/11/10 15:00:52;;;;;;;13.13;2.25;;;;;;;;;;5078354;28;20118;-83
2022/11/10 15:03:38;;;;;;;9.85;1.88;;;;;;;;;;5081198;28;20104;-82
2022/11/10 15:06:11;;;;;;;11.20;1.80;;;;;;;;;;5061625;28;20724;-81
2022/11/10 15:08:39;;;;;;;8.52;1.95;;;;;;;;;;5063981;28;20040;-82
2022/11/10 15:11:05;;;;;;;8.40;1.70;;;;;;;;;;5088978;28;20040;-82